createdAt,value
2022-09-05T00:00:11.689Z,100.00
2022-09-05T00:03:03.968Z,100.00
2022-09-05T00:05:33.439Z,100.00
2022-09-05T00:08:41.042Z,100.00
2022-09-05T00:11:43.280Z,100.00
2022-09-05T00:15:14.689Z,100.00
2022-09-05T00:18:07.911Z,100.00
2022-09-05T00:24:30.072Z,100.00
2022-09-05T00:24:37.273Z,100.00
2022-09-05T00:27:19.739Z,100.00
2022-09-05T00:31:07.223Z,100.00
2022-09-05T00:33:00.106Z,100.00
2022-09-05T00:35:26.882Z,100.00
2022-09-05T00:37:54.454Z,100.00
2022-09-05T00:40:37.988Z,100.00
2022-09-05T00:43:10.008Z,100.00
2022-09-05T00:45:47.641Z,100.00
2022-09-05T00:48:28.591Z,100.00
2022-09-05T00:51:01.293Z,100.00
2022-09-05T00:53:46.565Z,100.00
2022-09-05T00:56:22.265Z,100.00
2022-09-05T00:59:26.583Z,100.00
2022-09-05T01:02:23.103Z,100.00
2022-09-05T01:05:31.427Z,100.00
2022-09-05T01:08:13.426Z,100.00
2022-09-05T01:10:46.363Z,100.00
2022-09-05T01:13:31.584Z,100.00
2022-09-05T01:16:24.263Z,100.00
2022-09-05T01:18:59.311Z,100.00
2022-09-05T01:21:57.912Z,100.00
2022-09-05T01:24:46.433Z,100.00
2022-09-05T01:27:54.660Z,100.00
2022-09-05T01:30:55.508Z,100.00
2022-09-05T01:33:38.211Z,100.00
2022-09-05T01:36:28.529Z,100.00
2022-09-05T01:40:11.130Z,100.00
2022-09-05T01:42:24.922Z,100.00
2022-09-05T01:45:29.452Z,100.00
2022-09-05T01:48:30.252Z,100.00
2022-09-05T01:51:28.231Z,100.00
2022-09-05T01:54:05.264Z,100.00
2022-09-05T01:56:39.443Z,100.00
2022-09-05T01:59:09.082Z,100.00
2022-09-05T02:02:00.460Z,100.00
2022-09-05T02:05:47.198Z,100.00
2022-09-05T02:08:26.539Z,100.00
2022-09-05T02:10:53.147Z,100.00
2022-09-05T02:13:49.568Z,100.00
2022-09-05T02:16:54.748Z,100.00
2022-09-05T02:19:31.546Z,100.00
2022-09-05T02:22:02.520Z,100.00
2022-09-05T02:24:43.131Z,100.00
2022-09-05T02:28:01.891Z,100.00
2022-09-05T02:30:12.962Z,100.00
2022-09-05T02:33:21.549Z,100.00
2022-09-05T02:36:13.100Z,100.00
2022-09-05T02:42:43.452Z,100.00
2022-09-05T02:45:10.558Z,100.00
2022-09-05T02:45:26.554Z,100.00
2022-09-05T02:48:27.673Z,100.00
2022-09-05T02:57:27.323Z,100.00
2022-09-05T02:57:46.249Z,100.00
2022-09-05T02:58:06.215Z,100.00
2022-09-05T03:00:24.272Z,100.00
2022-09-05T03:03:12.023Z,100.00
2022-09-05T03:05:46.513Z,100.00
2022-09-05T03:08:44.145Z,100.00
2022-09-05T03:11:38.430Z,100.00
2022-09-05T03:14:41.610Z,100.00
2022-09-05T03:17:33.172Z,100.00
2022-09-05T03:20:08.798Z,100.00
2022-09-05T03:23:20.706Z,100.00
2022-09-05T03:26:05.613Z,100.00
2022-09-05T03:29:08.950Z,100.00
2022-09-05T03:31:54.078Z,100.00
2022-09-05T03:35:11.904Z,100.00
2022-09-05T03:37:56.652Z,100.00
2022-09-05T03:41:01.032Z,100.00
2022-09-05T03:43:53.590Z,100.00
2022-09-05T03:46:32.959Z,100.00
2022-09-05T03:54:32.371Z,100.00
2022-09-05T03:57:07.377Z,100.00
2022-09-05T03:57:23.883Z,100.00
2022-09-05T03:59:12.423Z,100.00
2022-09-05T04:02:57.976Z,100.00
2022-09-05T04:08:07.619Z,100.00
2022-09-05T04:08:17.616Z,100.00
2022-09-05T04:10:37.069Z,100.00
2022-09-05T04:13:14.780Z,100.00
2022-09-05T04:15:48.703Z,100.00
2022-09-05T04:18:33.164Z,100.00
2022-09-05T04:21:29.171Z,100.00
2022-09-05T04:24:43.818Z,100.00
2022-09-05T04:27:27.921Z,100.00
2022-09-05T04:30:01.764Z,100.00
2022-09-05T04:32:56.840Z,100.00
2022-09-05T04:35:39.337Z,100.00
2022-09-05T04:38:11.344Z,100.00
2022-09-05T04:40:49.520Z,100.00
2022-09-05T04:43:25.375Z,100.00
2022-09-05T04:46:25.423Z,100.00
2022-09-05T04:48:55.109Z,100.00
2022-09-05T04:52:01.047Z,100.00
2022-09-05T04:54:50.083Z,100.00
2022-09-05T04:57:39.886Z,100.00
2022-09-05T05:06:00.031Z,100.00
2022-09-05T05:06:12.752Z,100.00
2022-09-05T05:06:13.107Z,100.00
2022-09-05T05:08:46.672Z,100.00
2022-09-05T05:15:10.118Z,100.00
2022-09-05T05:17:57.927Z,100.00
2022-09-05T05:18:07.943Z,100.00
2022-09-05T05:20:41.748Z,100.00
2022-09-05T05:23:09.688Z,100.00
2022-09-05T05:25:55.244Z,100.00
2022-09-05T05:28:47.763Z,100.00
2022-09-05T05:31:33.721Z,100.00
2022-09-05T05:34:12.988Z,100.00
2022-09-05T05:37:00.948Z,100.00
2022-09-05T05:39:30.121Z,100.00
2022-09-05T05:41:58.523Z,100.00
2022-09-05T05:44:31.633Z,100.00
2022-09-05T05:47:26.805Z,100.00
2022-09-05T05:50:01.790Z,100.00
2022-09-05T05:52:46.396Z,100.00
2022-09-05T05:55:52.392Z,100.00
2022-09-05T05:58:34.893Z,100.00
2022-09-05T06:01:21.930Z,100.00
2022-09-05T06:04:44.810Z,100.00
2022-09-05T06:08:07.509Z,100.00
2022-09-05T06:15:01.180Z,100.00
2022-09-05T06:15:06.394Z,100.00
2022-09-05T06:17:09.928Z,100.00
2022-09-05T06:22:04.922Z,100.00
2022-09-05T06:23:10.608Z,100.00
2022-09-05T06:26:33.415Z,100.00
2022-09-05T06:29:03.220Z,100.00
2022-09-05T06:31:54.541Z,100.00
2022-09-05T06:34:35.297Z,100.00
2022-09-05T06:37:25.312Z,100.00
2022-09-05T06:40:21.170Z,100.00
2022-09-05T06:43:21.992Z,100.00
2022-09-05T06:47:22.494Z,100.00
2022-09-05T06:49:49.224Z,100.00
2022-09-05T06:52:28.966Z,100.00
2022-09-05T06:55:21.398Z,100.00
2022-09-05T06:58:19.106Z,100.00
2022-09-05T07:00:51.617Z,100.00
2022-09-05T07:03:47.390Z,100.00
2022-09-05T07:07:02.227Z,100.00
2022-09-05T07:09:54.126Z,100.00
2022-09-05T07:12:30.417Z,100.00
2022-09-05T07:15:20.768Z,100.00
2022-09-05T07:18:09.936Z,100.00
2022-09-05T07:21:15.823Z,100.00
2022-09-05T07:24:10.229Z,100.00
2022-09-05T07:26:53.907Z,100.00
2022-09-05T07:29:32.557Z,100.00
2022-09-05T07:32:02.037Z,100.00
2022-09-05T07:34:31.580Z,100.00
2022-09-05T07:37:14.732Z,100.00
2022-09-05T07:39:55.638Z,100.00
2022-09-05T07:42:29.793Z,100.00
2022-09-05T07:45:06.444Z,100.00
2022-09-05T07:47:38.725Z,100.00
2022-09-05T07:52:15.616Z,100.00
2022-09-05T07:56:51.982Z,100.00
2022-09-05T07:56:54.387Z,100.00
2022-09-05T07:58:54.166Z,100.00
2022-09-05T08:01:22.836Z,100.00
2022-09-05T08:03:56.023Z,92.84
2022-09-05T08:07:11.913Z,95.32
2022-09-05T08:10:05.181Z,100.00
2022-09-05T08:12:16.036Z,91.18
2022-09-05T08:15:04.863Z,92.83
2022-09-05T08:17:33.812Z,86.91
2022-09-05T08:20:19.002Z,87.96
2022-09-05T08:23:19.155Z,83.55
2022-09-05T08:25:57.557Z,77.75
2022-09-05T08:28:35.382Z,80.32
2022-09-05T08:31:14.379Z,78.91
2022-09-05T08:33:43.341Z,74.72
2022-09-05T08:36:47.935Z,73.86
2022-09-05T08:39:25.588Z,78.45
2022-09-05T08:42:14.081Z,78.64
2022-09-05T08:46:43.591Z,81.05
2022-09-05T08:48:31.894Z,83.61
2022-09-05T08:51:17.228Z,87.14
2022-09-05T08:53:47.207Z,85.80
2022-09-05T08:56:49.180Z,88.03
2022-09-05T08:59:33.376Z,89.50
2022-09-05T09:02:47.333Z,90.26
2022-09-05T09:06:15.772Z,95.08
2022-09-05T09:08:55.397Z,98.19
2022-09-05T09:11:37.113Z,100.00
2022-09-05T09:14:43.637Z,100.00
2022-09-05T09:17:45.564Z,100.00
2022-09-05T09:20:47.076Z,100.00
2022-09-05T09:23:32.214Z,100.00
2022-09-05T09:26:11.123Z,98.61
2022-09-05T09:28:50.572Z,99.31
2022-09-05T09:31:30.098Z,100.00
2022-09-05T09:34:02.970Z,100.00
2022-09-05T09:36:48.075Z,100.00
2022-09-05T09:39:38.231Z,100.00
2022-09-05T09:42:34.251Z,100.00
2022-09-05T09:45:33.316Z,100.00
2022-09-05T09:48:37.556Z,98.95
2022-09-05T09:51:22.835Z,95.81
2022-09-05T09:53:52.369Z,94.55
2022-09-05T09:56:40.210Z,95.21
2022-09-05T09:59:54.803Z,88.34
2022-09-05T10:04:55.565Z,85.23
2022-09-05T10:10:46.660Z,74.81
2022-09-05T10:10:54.213Z,73.15
2022-09-05T10:12:14.423Z,74.83
2022-09-05T10:14:55.529Z,78.72
2022-09-05T10:17:24.860Z,76.50
2022-09-05T10:20:15.038Z,76.72
2022-09-05T10:23:07.456Z,79.92
2022-09-05T10:26:05.016Z,80.61
2022-09-05T10:28:43.808Z,75.46
2022-09-05T10:33:05.313Z,68.03
2022-09-05T10:35:19.763Z,64.13
2022-09-05T10:37:12.367Z,64.39
2022-09-05T10:39:45.443Z,61.78
2022-09-05T10:42:31.736Z,62.40
2022-09-05T10:45:05.022Z,60.38
2022-09-05T10:47:44.249Z,64.05
2022-09-05T10:50:26.407Z,60.50
2022-09-05T10:53:22.337Z,59.83
2022-09-05T10:56:01.753Z,60.83
2022-09-05T11:02:23.254Z,56.92
2022-09-05T11:02:28.058Z,56.44
2022-09-05T11:04:55.099Z,55.67
2022-09-05T11:07:41.654Z,54.66
2022-09-05T11:10:44.669Z,54.21
2022-09-05T11:13:15.421Z,51.20
2022-09-05T11:16:20.406Z,50.50
2022-09-05T11:19:12.971Z,50.71
2022-09-05T11:22:06.509Z,49.39
2022-09-05T11:24:59.754Z,46.50
2022-09-05T11:27:44.557Z,47.19
2022-09-05T11:30:30.310Z,46.37
2022-09-05T11:39:47.375Z,44.53
2022-09-05T11:39:56.619Z,46.51
2022-09-05T11:40:06.815Z,42.74
2022-09-05T11:42:34.053Z,43.65
2022-09-05T11:45:30.882Z,45.06
2022-09-05T11:48:53.131Z,44.31
2022-09-05T11:51:54.529Z,43.98
2022-09-05T11:54:30.339Z,43.35
2022-09-05T11:57:33.330Z,41.47
2022-09-05T12:00:32.757Z,43.50
2022-09-05T12:03:38.524Z,44.15
2022-09-05T12:06:13.654Z,41.74
2022-09-05T12:09:03.661Z,41.68
2022-09-05T12:12:01.356Z,42.16
2022-09-05T12:14:30.785Z,42.80
2022-09-05T12:17:10.070Z,42.48
2022-09-05T12:19:59.344Z,40.85
2022-09-05T12:22:37.364Z,41.59
2022-09-05T12:27:40.163Z,41.51
2022-09-05T12:29:26.533Z,40.31
2022-09-05T12:32:36.532Z,40.94
2022-09-05T12:36:13.213Z,40.41
2022-09-05T12:40:54.997Z,40.74
2022-09-05T12:41:44.465Z,40.90
2022-09-05T12:44:38.598Z,38.83
2022-09-05T12:47:00.162Z,39.98
2022-09-05T12:50:02.893Z,40.71
2022-09-05T12:52:33.660Z,41.71
2022-09-05T12:55:28.772Z,41.62
2022-09-05T13:02:59.030Z,42.47
2022-09-05T13:03:05.715Z,41.89
2022-09-05T13:04:13.324Z,39.97
2022-09-05T13:06:41.555Z,39.49
2022-09-05T13:09:16.555Z,40.43
2022-09-05T13:14:50.670Z,43.75
2022-09-05T13:15:22.902Z,44.66
2022-09-05T13:18:11.832Z,45.45
2022-09-05T13:20:49.098Z,45.30
2022-09-05T13:23:26.861Z,45.05
2022-09-05T13:25:58.474Z,43.38
2022-09-05T13:28:52.018Z,40.12
2022-09-05T13:37:57.930Z,38.13
2022-09-05T13:38:15.620Z,35.54
2022-09-05T13:38:29.398Z,33.61
2022-09-05T13:40:50.120Z,33.76
2022-09-05T13:43:26.562Z,35.10
2022-09-05T13:46:15.459Z,35.36
2022-09-05T13:51:44.410Z,34.51
2022-09-05T13:54:33.969Z,33.33
2022-09-05T13:57:31.883Z,35.14
2022-09-05T14:00:43.196Z,35.15
2022-09-05T14:03:40.482Z,35.80
2022-09-05T14:06:45.127Z,34.98
2022-09-05T14:09:41.226Z,34.11
2022-09-05T14:12:47.563Z,33.96
2022-09-05T14:15:30.278Z,34.20
2022-09-05T14:18:19.964Z,34.53
2022-09-05T14:21:15.750Z,34.88
2022-09-05T14:24:12.783Z,34.75
2022-09-05T14:26:49.138Z,34.98
2022-09-05T14:29:21.797Z,35.68
2022-09-05T14:37:36.917Z,35.31
2022-09-05T14:37:45.593Z,35.78
2022-09-05T14:38:32.690Z,36.09
2022-09-05T14:41:11.785Z,36.30
2022-09-05T14:43:41.664Z,35.54
2022-09-05T14:46:30.467Z,34.85
2022-09-05T14:49:07.431Z,34.08
2022-09-05T14:51:39.229Z,34.19
2022-09-05T15:01:24.967Z,33.26
2022-09-05T15:02:43.608Z,34.23
2022-09-05T15:03:08.621Z,32.08
2022-09-05T15:05:41.066Z,32.94
2022-09-05T15:08:30.567Z,33.50
2022-09-05T15:12:17.315Z,31.71
2022-09-05T15:14:18.578Z,32.03
2022-09-05T15:16:58.262Z,32.74
2022-09-05T15:20:06.637Z,33.50
2022-09-05T15:22:41.775Z,33.37
2022-09-05T15:25:21.639Z,34.11
2022-09-05T15:27:49.955Z,34.51
2022-09-05T15:30:36.082Z,34.45
2022-09-05T15:33:17.113Z,34.15
2022-09-05T15:35:45.535Z,33.85
2022-09-05T15:38:24.578Z,33.89
2022-09-05T15:41:23.574Z,34.67
2022-09-05T15:43:58.170Z,35.10
2022-09-05T15:46:35.626Z,34.90
2022-09-05T15:49:04.052Z,33.77
2022-09-05T15:51:46.839Z,34.85
2022-09-05T15:54:33.868Z,34.25
2022-09-05T15:57:17.886Z,34.69
2022-09-05T15:59:48.905Z,35.19
2022-09-05T16:02:20.767Z,35.25
2022-09-05T16:10:27.679Z,35.39
2022-09-05T16:10:38.968Z,35.67
2022-09-05T16:12:07.754Z,34.83
2022-09-05T16:14:36.524Z,35.30
2022-09-05T16:23:17.262Z,35.38
2022-09-05T16:23:30.680Z,35.58
2022-09-05T16:23:48.643Z,36.18
2022-09-05T16:26:19.107Z,36.07
2022-09-05T16:29:05.667Z,33.28
2022-09-05T16:31:43.062Z,33.95
2022-09-05T16:34:22.980Z,31.39
2022-09-05T16:37:08.494Z,29.77
2022-09-05T16:39:41.724Z,28.66
2022-09-05T16:42:24.002Z,28.19
2022-09-05T16:45:11.508Z,28.23
2022-09-05T16:47:47.444Z,27.61
2022-09-05T16:50:34.159Z,27.57
2022-09-05T16:53:01.468Z,27.62
2022-09-05T16:55:41.060Z,27.65
2022-09-05T16:58:21.964Z,27.42
2022-09-05T17:01:17.930Z,27.90
2022-09-05T17:04:07.997Z,27.83
2022-09-05T17:06:57.559Z,28.22
2022-09-05T17:09:27.688Z,28.68
2022-09-05T17:12:00.627Z,28.58
2022-09-05T17:14:40.967Z,28.51
2022-09-05T17:18:19.908Z,29.57
2022-09-05T17:20:38.276Z,30.59
2022-09-05T17:29:25.188Z,33.09
2022-09-05T17:29:31.059Z,34.88
2022-09-05T17:29:34.295Z,35.66
2022-09-05T17:31:57.756Z,35.30
2022-09-05T17:34:58.699Z,34.68
2022-09-05T17:37:53.496Z,35.70
2022-09-05T17:40:44.710Z,37.25
2022-09-05T17:43:28.580Z,38.47
2022-09-05T17:46:14.296Z,39.35
2022-09-05T17:49:17.526Z,40.86
2022-09-05T17:51:41.910Z,41.48
2022-09-05T17:54:27.929Z,42.82
2022-09-05T17:56:54.697Z,43.81
2022-09-05T17:59:22.092Z,44.54
2022-09-05T18:02:03.828Z,45.11
2022-09-05T18:04:39.775Z,45.98
2022-09-05T18:07:30.995Z,46.77
2022-09-05T18:10:14.936Z,46.97
2022-09-05T18:13:31.539Z,48.18
2022-09-05T18:15:36.102Z,48.50
2022-09-05T18:18:10.786Z,49.40
2022-09-05T18:21:21.593Z,49.57
2022-09-05T18:23:58.077Z,50.20
2022-09-05T18:26:37.236Z,50.44
2022-09-05T18:29:16.117Z,51.09
2022-09-05T18:31:43.492Z,51.99
2022-09-05T18:34:18.826Z,52.42
2022-09-05T18:36:53.547Z,52.98
2022-09-05T18:39:25.575Z,53.45
2022-09-05T18:42:33.722Z,53.77
2022-09-05T18:45:15.253Z,56.32
2022-09-05T18:47:57.088Z,57.55
2022-09-05T18:50:32.536Z,59.77
2022-09-05T18:53:10.585Z,60.96
2022-09-05T18:56:31.241Z,62.37
2022-09-05T18:59:16.405Z,65.46
2022-09-05T19:01:52.049Z,65.67
2022-09-05T19:04:41.577Z,65.78
2022-09-05T19:07:13.985Z,66.67
2022-09-05T19:10:35.000Z,65.54
2022-09-05T19:13:08.302Z,66.24
2022-09-05T19:16:42.485Z,67.99
2022-09-05T19:19:19.322Z,65.98
2022-09-05T19:22:37.370Z,67.33
2022-09-05T19:24:46.302Z,68.80
2022-09-05T19:28:33.661Z,71.04
2022-09-05T19:36:59.163Z,71.21
2022-09-05T19:37:05.925Z,71.50
2022-09-05T19:37:08.196Z,71.08
2022-09-05T19:41:12.024Z,73.76
2022-09-05T19:47:30.549Z,75.26
2022-09-05T19:47:42.806Z,77.98
2022-09-05T19:47:55.832Z,77.53
2022-09-05T19:50:13.700Z,77.11
2022-09-05T19:52:40.932Z,77.15
2022-09-05T19:55:20.557Z,76.38
2022-09-05T19:58:18.421Z,78.48
2022-09-05T20:00:39.190Z,80.52
2022-09-05T20:03:06.240Z,81.11
2022-09-05T20:05:33.733Z,80.83
2022-09-05T20:08:02.030Z,81.16
2022-09-05T20:10:32.513Z,80.60
2022-09-05T20:12:59.797Z,80.61
2022-09-05T20:15:36.378Z,81.14
2022-09-05T20:18:33.885Z,82.32
2022-09-05T20:21:16.271Z,83.55
2022-09-05T20:23:49.361Z,83.28
2022-09-05T20:26:21.078Z,84.23
2022-09-05T20:28:54.695Z,84.17
2022-09-05T20:31:27.432Z,84.19
2022-09-05T20:34:00.727Z,84.30
2022-09-05T20:43:17.392Z,84.38
2022-09-05T20:43:24.590Z,86.32
2022-09-05T20:43:31.859Z,88.91
2022-09-05T20:45:44.693Z,89.12
2022-09-05T20:54:08.975Z,88.74
2022-09-05T20:54:13.191Z,88.97
2022-09-05T20:54:27.282Z,88.66
2022-09-05T20:56:36.021Z,90.04
2022-09-05T20:59:02.902Z,94.00
2022-09-05T21:01:32.512Z,93.57
2022-09-05T21:04:02.008Z,93.17
2022-09-05T21:06:33.205Z,94.69
2022-09-05T21:09:57.801Z,93.94
2022-09-05T21:12:28.719Z,95.23
2022-09-05T21:15:26.999Z,99.56
2022-09-05T21:18:18.390Z,99.37
2022-09-05T21:20:56.749Z,98.32
2022-09-05T21:23:38.445Z,97.58
2022-09-05T21:26:21.312Z,97.45
2022-09-05T21:29:11.322Z,97.01
2022-09-05T21:31:42.524Z,97.01
2022-09-05T21:34:20.299Z,97.84
2022-09-05T21:36:49.907Z,99.26
2022-09-05T21:39:34.842Z,99.44
2022-09-05T21:42:15.619Z,100.00
2022-09-05T21:47:40.635Z,99.53
2022-09-05T21:47:52.503Z,100.00
2022-09-05T21:50:30.799Z,100.00
2022-09-05T21:54:19.063Z,100.00
2022-09-05T21:59:22.793Z,100.00
2022-09-05T21:59:27.563Z,100.00
2022-09-05T22:01:44.902Z,100.00
2022-09-05T22:04:17.505Z,100.00
2022-09-05T22:06:48.813Z,100.00
2022-09-05T22:09:25.891Z,100.00
2022-09-05T22:11:52.804Z,100.00
2022-09-05T22:14:21.393Z,100.00
2022-09-05T22:16:50.723Z,100.00
2022-09-05T22:19:22.823Z,100.00
2022-09-05T22:22:15.691Z,100.00
2022-09-05T22:24:52.114Z,100.00
2022-09-05T22:27:20.947Z,100.00
2022-09-05T22:29:50.560Z,100.00
2022-09-05T22:32:18.957Z,100.00
2022-09-05T22:35:27.653Z,100.00
2022-09-05T22:37:49.443Z,100.00
2022-09-05T22:40:26.451Z,100.00
2022-09-05T22:43:01.145Z,100.00
2022-09-05T22:45:29.324Z,100.00
2022-09-05T22:47:56.491Z,100.00
2022-09-05T22:50:56.006Z,100.00
2022-09-05T22:53:22.719Z,100.00
2022-09-05T22:55:58.120Z,100.00
2022-09-05T22:58:25.608Z,100.00
2022-09-05T23:00:53.052Z,100.00
2022-09-05T23:03:20.080Z,100.00
2022-09-05T23:05:46.982Z,100.00
2022-09-05T23:08:14.353Z,100.00
2022-09-05T23:10:41.220Z,100.00
2022-09-05T23:13:09.818Z,100.00
2022-09-05T23:15:37.505Z,100.00
2022-09-05T23:18:05.103Z,100.00
2022-09-05T23:20:32.609Z,100.00
2022-09-05T23:23:03.482Z,100.00
2022-09-05T23:25:30.553Z,100.00
2022-09-05T23:27:57.223Z,100.00
2022-09-05T23:30:23.961Z,100.00
2022-09-05T23:32:52.040Z,100.00
2022-09-05T23:35:19.373Z,100.00
2022-09-05T23:37:47.045Z,100.00
2022-09-05T23:40:16.657Z,100.00
2022-09-05T23:43:04.231Z,100.00
2022-09-05T23:45:31.167Z,100.00
2022-09-05T23:47:58.538Z,100.00
2022-09-05T23:50:28.291Z,100.00
2022-09-05T23:52:55.019Z,100.00
2022-09-05T23:55:23.271Z,100.00
2022-09-05T23:57:49.889Z,100.00
